sensor_id;sensor_type;location;lat;lon;timestamp;P1;durP1;ratioP1;P2;durP2;ratioP2
50355;SDS011;36264;51.296;-0.602;2022-07-23T00:01:16;3.10;;;2.03;;
50355;SDS011;36264;51.296;-0.602;2022-07-23T00:03:42;4.60;;;2.38;;
50355;SDS011;36264;51.296;-0.602;2022-07-23T00:06:07;3.72;;;2.13;;
50355;SDS011;36264;51.296;-0.602;2022-07-23T00:08:33;7.75;;;2.55;;
50355;SDS011;36264;51.296;-0.602;2022-07-23T00:10:58;6.05;;;2.45;;
50355;SDS011;36264;51.296;-0.602;2022-07-23T00:13:24;4.43;;;2.30;;
50355;SDS011;36264;51.296;-0.602;2022-07-23T00:15:49;3.85;;;2.15;;
50355;SDS011;36264;51.296;-0.602;2022-07-23T00:18:14;3.20;;;2.10;;
50355;SDS011;36264;51.296;-0.602;2022-07-23T00:20:40;3.90;;;2.10;;
50355;SDS011;36264;51.296;-0.602;2022-07-23T00:23:05;2.90;;;1.67;;
50355;SDS011;36264;51.296;-0.602;2022-07-23T00:25:30;4.25;;;1.95;;
50355;SDS011;36264;51.296;-0.602;2022-07-23T00:27:59;3.50;;;1.80;;
50355;SDS011;36264;51.296;-0.602;2022-07-23T00:30:27;2.53;;;1.70;;
50355;SDS011;36264;51.296;-0.602;2022-07-23T00:32:55;3.17;;;2.00;;
50355;SDS011;36264;51.296;-0.602;2022-07-23T00:35:23;3.95;;;2.08;;
50355;SDS011;36264;51.296;-0.602;2022-07-23T00:37:50;3.63;;;2.00;;
50355;SDS011;36264;51.296;-0.602;2022-07-23T00:40:15;3.25;;;1.90;;
50355;SDS011;36264;51.296;-0.602;2022-07-23T00:42:41;3.65;;;2.20;;
50355;SDS011;36264;51.296;-0.602;2022-07-23T00:45:08;3.42;;;2.15;;
50355;SDS011;36264;51.296;-0.602;2022-07-23T00:47:33;2.42;;;1.70;;
50355;SDS011;36264;51.296;-0.602;2022-07-23T00:49:59;2.38;;;1.70;;
50355;SDS011;36264;51.296;-0.602;2022-07-23T00:52:24;2.47;;;1.80;;
50355;SDS011;36264;51.296;-0.602;2022-07-23T00:54:50;3.65;;;2.10;;
50355;SDS011;36264;51.296;-0.602;2022-07-23T00:57:16;3.33;;;2.10;;
50355;SDS011;36264;51.296;-0.602;2022-07-23T00:59:42;4.85;;;2.20;;
50355;SDS011;36264;51.296;-0.602;2022-07-23T01:02:07;3.85;;;2.10;;
50355;SDS011;36264;51.296;-0.602;2022-07-23T01:04:33;6.68;;;2.08;;
50355;SDS011;36264;51.296;-0.602;2022-07-23T01:06:59;4.70;;;2.20;;
50355;SDS011;36264;51.296;-0.602;2022-07-23T01:09:26;3.78;;;2.25;;
50355;SDS011;36264;51.296;-0.602;2022-07-23T01:11:51;3.35;;;2.08;;
50355;SDS011;36264;51.296;-0.602;2022-07-23T01:14:19;4.03;;;2.15;;
50355;SDS011;36264;51.296;-0.602;2022-07-23T01:16:45;4.80;;;2.17;;
50355;SDS011;36264;51.296;-0.602;2022-07-23T01:19:12;6.30;;;2.58;;
50355;SDS011;36264;51.296;-0.602;2022-07-23T01:21:39;3.70;;;1.90;;
50355;SDS011;36264;51.296;-0.602;2022-07-23T01:24:08;3.40;;;2.10;;
50355;SDS011;36264;51.296;-0.602;2022-07-23T01:26:34;4.55;;;2.13;;
50355;SDS011;36264;51.296;-0.602;2022-07-23T01:29:00;3.60;;;1.92;;
50355;SDS011;36264;51.296;-0.602;2022-07-23T01:31:26;3.55;;;2.25;;
50355;SDS011;36264;51.296;-0.602;2022-07-23T01:33:52;5.55;;;2.58;;
50355;SDS011;36264;51.296;-0.602;2022-07-23T01:36:17;4.72;;;2.20;;
50355;SDS011;36264;51.296;-0.602;2022-07-23T01:38:43;4.10;;;2.20;;
50355;SDS011;36264;51.296;-0.602;2022-07-23T01:41:08;4.38;;;2.15;;
50355;SDS011;36264;51.296;-0.602;2022-07-23T01:43:33;3.03;;;1.90;;
50355;SDS011;36264;51.296;-0.602;2022-07-23T01:45:59;4.90;;;2.35;;
50355;SDS011;36264;51.296;-0.602;2022-07-23T01:48:24;2.90;;;1.88;;
50355;SDS011;36264;51.296;-0.602;2022-07-23T01:50:49;2.97;;;1.85;;
50355;SDS011;36264;51.296;-0.602;2022-07-23T01:53:15;2.93;;;1.70;;
50355;SDS011;36264;51.296;-0.602;2022-07-23T01:55:41;3.85;;;2.25;;
50355;SDS011;36264;51.296;-0.602;2022-07-23T01:58:06;3.83;;;2.13;;
50355;SDS011;36264;51.296;-0.602;2022-07-23T02:00:32;4.03;;;2.15;;
50355;SDS011;36264;51.296;-0.602;2022-07-23T02:02:57;3.40;;;2.10;;
50355;SDS011;36264;51.296;-0.602;2022-07-23T02:05:25;3.33;;;1.98;;
50355;SDS011;36264;51.296;-0.602;2022-07-23T02:07:53;4.50;;;2.58;;
50355;SDS011;36264;51.296;-0.602;2022-07-23T02:10:19;6.25;;;2.40;;
50355;SDS011;36264;51.296;-0.602;2022-07-23T02:12:45;4.35;;;2.40;;
50355;SDS011;36264;51.296;-0.602;2022-07-23T02:15:10;3.78;;;2.00;;
50355;SDS011;36264;51.296;-0.602;2022-07-23T02:17:36;5.18;;;2.70;;
50355;SDS011;36264;51.296;-0.602;2022-07-23T02:20:01;4.40;;;2.50;;
50355;SDS011;36264;51.296;-0.602;2022-07-23T02:22:27;4.10;;;2.42;;
50355;SDS011;36264;51.296;-0.602;2022-07-23T02:24:52;3.83;;;2.15;;
50355;SDS011;36264;51.296;-0.602;2022-07-23T02:27:18;5.25;;;2.13;;
50355;SDS011;36264;51.296;-0.602;2022-07-23T02:29:43;4.20;;;2.45;;
50355;SDS011;36264;51.296;-0.602;2022-07-23T02:32:08;6.55;;;2.67;;
50355;SDS011;36264;51.296;-0.602;2022-07-23T02:34:34;3.03;;;2.03;;
50355;SDS011;36264;51.296;-0.602;2022-07-23T02:36:59;7.05;;;2.65;;
50355;SDS011;36264;51.296;-0.602;2022-07-23T02:39:25;7.72;;;2.72;;
50355;SDS011;36264;51.296;-0.602;2022-07-23T02:41:51;5.80;;;2.60;;
50355;SDS011;36264;51.296;-0.602;2022-07-23T02:44:16;4.65;;;2.50;;
50355;SDS011;36264;51.296;-0.602;2022-07-23T02:46:41;4.50;;;2.60;;
50355;SDS011;36264;51.296;-0.602;2022-07-23T02:49:07;4.18;;;2.50;;
50355;SDS011;36264;51.296;-0.602;2022-07-23T02:51:32;6.88;;;2.50;;
50355;SDS011;36264;51.296;-0.602;2022-07-23T02:53:57;3.97;;;2.30;;
50355;SDS011;36264;51.296;-0.602;2022-07-23T02:56:23;3.40;;;1.95;;
50355;SDS011;36264;51.296;-0.602;2022-07-23T02:58:48;4.43;;;2.42;;
50355;SDS011;36264;51.296;-0.602;2022-07-23T03:01:13;4.40;;;2.30;;
50355;SDS011;36264;51.296;-0.602;2022-07-23T03:03:39;4.32;;;2.55;;
50355;SDS011;36264;51.296;-0.602;2022-07-23T03:06:04;5.75;;;2.47;;
50355;SDS011;36264;51.296;-0.602;2022-07-23T03:08:30;3.17;;;2.15;;
50355;SDS011;36264;51.296;-0.602;2022-07-23T03:10:55;4.68;;;2.20;;
50355;SDS011;36264;51.296;-0.602;2022-07-23T03:13:21;4.00;;;2.42;;
50355;SDS011;36264;51.296;-0.602;2022-07-23T03:15:46;3.90;;;2.30;;
50355;SDS011;36264;51.296;-0.602;2022-07-23T03:18:11;5.40;;;2.70;;
50355;SDS011;36264;51.296;-0.602;2022-07-23T03:20:37;4.22;;;2.28;;
50355;SDS011;36264;51.296;-0.602;2022-07-23T03:23:02;4.28;;;2.53;;
50355;SDS011;36264;51.296;-0.602;2022-07-23T03:25:28;6.40;;;2.75;;
50355;SDS011;36264;51.296;-0.602;2022-07-23T03:27:53;5.63;;;2.47;;
50355;SDS011;36264;51.296;-0.602;2022-07-23T03:30:18;6.72;;;2.88;;
50355;SDS011;36264;51.296;-0.602;2022-07-23T03:32:44;5.60;;;2.70;;
50355;SDS011;36264;51.296;-0.602;2022-07-23T03:35:09;4.65;;;2.53;;
50355;SDS011;36264;51.296;-0.602;2022-07-23T03:37:35;6.05;;;3.13;;
50355;SDS011;36264;51.296;-0.602;2022-07-23T03:40:01;5.10;;;2.25;;
50355;SDS011;36264;51.296;-0.602;2022-07-23T03:42:26;4.95;;;2.90;;
50355;SDS011;36264;51.296;-0.602;2022-07-23T03:44:52;4.72;;;2.72;;
50355;SDS011;36264;51.296;-0.602;2022-07-23T03:47:17;5.22;;;2.63;;
50355;SDS011;36264;51.296;-0.602;2022-07-23T03:49:46;4.15;;;2.60;;
50355;SDS011;36264;51.296;-0.602;2022-07-23T03:52:12;4.03;;;2.47;;
50355;SDS011;36264;51.296;-0.602;2022-07-23T03:54:37;4.32;;;2.50;;
50355;SDS011;36264;51.296;-0.602;2022-07-23T03:57:02;4.88;;;2.95;;
50355;SDS011;36264;51.296;-0.602;2022-07-23T03:59:28;4.32;;;2.67;;
50355;SDS011;36264;51.296;-0.602;2022-07-23T04:01:53;5.05;;;2.95;;
50355;SDS011;36264;51.296;-0.602;2022-07-23T04:04:19;6.72;;;2.63;;
50355;SDS011;36264;51.296;-0.602;2022-07-23T04:06:44;4.80;;;2.60;;
50355;SDS011;36264;51.296;-0.602;2022-07-23T04:09:09;5.32;;;2.28;;
50355;SDS011;36264;51.296;-0.602;2022-07-23T04:11:35;4.85;;;2.80;;
50355;SDS011;36264;51.296;-0.602;2022-07-23T04:14:00;5.05;;;2.53;;
50355;SDS011;36264;51.296;-0.602;2022-07-23T04:16:25;4.18;;;2.50;;
50355;SDS011;36264;51.296;-0.602;2022-07-23T04:18:51;6.43;;;2.83;;
50355;SDS011;36264;51.296;-0.602;2022-07-23T04:21:16;4.65;;;2.40;;
50355;SDS011;36264;51.296;-0.602;2022-07-23T04:23:41;5.65;;;2.70;;
50355;SDS011;36264;51.296;-0.602;2022-07-23T04:26:07;7.70;;;2.67;;
50355;SDS011;36264;51.296;-0.602;2022-07-23T04:28:32;8.52;;;3.03;;
50355;SDS011;36264;51.296;-0.602;2022-07-23T04:30:58;5.38;;;2.75;;
50355;SDS011;36264;51.296;-0.602;2022-07-23T04:33:24;4.57;;;2.78;;
50355;SDS011;36264;51.296;-0.602;2022-07-23T04:35:49;6.82;;;2.83;;
50355;SDS011;36264;51.296;-0.602;2022-07-23T04:38:15;4.95;;;2.42;;
50355;SDS011;36264;51.296;-0.602;2022-07-23T04:40:40;4.38;;;2.42;;
50355;SDS011;36264;51.296;-0.602;2022-07-23T04:43:05;5.82;;;2.85;;
50355;SDS011;36264;51.296;-0.602;2022-07-23T04:45:31;4.15;;;2.33;;
50355;SDS011;36264;51.296;-0.602;2022-07-23T04:47:56;4.72;;;2.80;;
50355;SDS011;36264;51.296;-0.602;2022-07-23T04:50:22;3.63;;;2.47;;
50355;SDS011;36264;51.296;-0.602;2022-07-23T04:52:48;4.18;;;2.58;;
50355;SDS011;36264;51.296;-0.602;2022-07-23T04:55:14;4.00;;;2.45;;
50355;SDS011;36264;51.296;-0.602;2022-07-23T04:57:39;5.85;;;3.03;;
50355;SDS011;36264;51.296;-0.602;2022-07-23T05:00:05;5.25;;;2.67;;
50355;SDS011;36264;51.296;-0.602;2022-07-23T05:02:31;4.53;;;2.55;;
50355;SDS011;36264;51.296;-0.602;2022-07-23T05:04:56;3.55;;;2.22;;
50355;SDS011;36264;51.296;-0.602;2022-07-23T05:07:22;4.18;;;2.42;;
50355;SDS011;36264;51.296;-0.602;2022-07-23T05:09:47;3.78;;;2.30;;
50355;SDS011;36264;51.296;-0.602;2022-07-23T05:12:13;4.20;;;2.72;;
50355;SDS011;36264;51.296;-0.602;2022-07-23T05:14:38;4.75;;;3.08;;
50355;SDS011;36264;51.296;-0.602;2022-07-23T05:17:03;4.88;;;2.53;;
50355;SDS011;36264;51.296;-0.602;2022-07-23T05:19:29;3.97;;;2.15;;
50355;SDS011;36264;51.296;-0.602;2022-07-23T05:21:54;3.50;;;2.20;;
50355;SDS011;36264;51.296;-0.602;2022-07-23T05:24:19;5.65;;;2.97;;
50355;SDS011;36264;51.296;-0.602;2022-07-23T05:26:45;4.15;;;2.53;;
50355;SDS011;36264;51.296;-0.602;2022-07-23T05:29:10;5.30;;;2.85;;
50355;SDS011;36264;51.296;-0.602;2022-07-23T05:31:36;5.68;;;2.80;;
50355;SDS011;36264;51.296;-0.602;2022-07-23T05:34:01;3.83;;;2.53;;
50355;SDS011;36264;51.296;-0.602;2022-07-23T05:36:26;4.55;;;2.80;;
50355;SDS011;36264;51.296;-0.602;2022-07-23T05:38:52;4.38;;;2.30;;
50355;SDS011;36264;51.296;-0.602;2022-07-23T05:41:17;6.32;;;3.65;;
50355;SDS011;36264;51.296;-0.602;2022-07-23T05:43:42;6.57;;;3.30;;
50355;SDS011;36264;51.296;-0.602;2022-07-23T05:46:08;5.53;;;2.88;;
50355;SDS011;36264;51.296;-0.602;2022-07-23T05:48:34;5.88;;;3.20;;
50355;SDS011;36264;51.296;-0.602;2022-07-23T05:50:59;6.95;;;3.35;;
50355;SDS011;36264;51.296;-0.602;2022-07-23T05:53:25;7.47;;;3.83;;
50355;SDS011;36264;51.296;-0.602;2022-07-23T05:55:51;6.20;;;3.35;;
50355;SDS011;36264;51.296;-0.602;2022-07-23T05:58:16;5.90;;;3.08;;
50355;SDS011;36264;51.296;-0.602;2022-07-23T06:00:41;6.85;;;3.60;;
50355;SDS011;36264;51.296;-0.602;2022-07-23T06:03:07;9.23;;;3.67;;
50355;SDS011;36264;51.296;-0.602;2022-07-23T06:05:32;5.80;;;2.95;;
50355;SDS011;36264;51.296;-0.602;2022-07-23T06:07:58;9.05;;;4.30;;
50355;SDS011;36264;51.296;-0.602;2022-07-23T06:10:23;5.07;;;3.10;;
50355;SDS011;36264;51.296;-0.602;2022-07-23T06:12:48;4.72;;;2.88;;
50355;SDS011;36264;51.296;-0.602;2022-07-23T06:15:14;5.57;;;2.97;;
50355;SDS011;36264;51.296;-0.602;2022-07-23T06:17:39;5.55;;;2.70;;
50355;SDS011;36264;51.296;-0.602;2022-07-23T06:20:05;6.82;;;3.47;;
50355;SDS011;36264;51.296;-0.602;2022-07-23T06:22:32;4.50;;;2.63;;
50355;SDS011;36264;51.296;-0.602;2022-07-23T06:24:57;5.40;;;3.08;;
50355;SDS011;36264;51.296;-0.602;2022-07-23T06:27:23;5.35;;;2.67;;
50355;SDS011;36264;51.296;-0.602;2022-07-23T06:29:48;6.25;;;2.70;;
50355;SDS011;36264;51.296;-0.602;2022-07-23T06:32:13;5.53;;;3.08;;
50355;SDS011;36264;51.296;-0.602;2022-07-23T06:34:39;4.22;;;2.80;;
50355;SDS011;36264;51.296;-0.602;2022-07-23T06:37:04;6.88;;;2.75;;
50355;SDS011;36264;51.296;-0.602;2022-07-23T06:39:30;7.22;;;3.67;;
50355;SDS011;36264;51.296;-0.602;2022-07-23T06:41:55;4.88;;;3.03;;
50355;SDS011;36264;51.296;-0.602;2022-07-23T06:44:21;5.35;;;2.50;;
50355;SDS011;36264;51.296;-0.602;2022-07-23T06:46:46;5.47;;;2.60;;
50355;SDS011;36264;51.296;-0.602;2022-07-23T06:49:11;8.02;;;3.10;;
50355;SDS011;36264;51.296;-0.602;2022-07-23T06:51:37;4.68;;;2.30;;
50355;SDS011;36264;51.296;-0.602;2022-07-23T06:54:02;4.20;;;2.40;;
50355;SDS011;36264;51.296;-0.602;2022-07-23T06:56:28;4.10;;;2.15;;
50355;SDS011;36264;51.296;-0.602;2022-07-23T06:58:53;6.35;;;2.40;;
50355;SDS011;36264;51.296;-0.602;2022-07-23T07:01:19;6.38;;;2.60;;
50355;SDS011;36264;51.296;-0.602;2022-07-23T07:03:44;3.97;;;2.30;;
50355;SDS011;36264;51.296;-0.602;2022-07-23T07:06:10;5.95;;;3.03;;
50355;SDS011;36264;51.296;-0.602;2022-07-23T07:08:35;7.70;;;2.97;;
50355;SDS011;36264;51.296;-0.602;2022-07-23T07:11:01;5.40;;;2.80;;
50355;SDS011;36264;51.296;-0.602;2022-07-23T07:13:27;4.45;;;2.50;;
50355;SDS011;36264;51.296;-0.602;2022-07-23T07:15:52;6.43;;;2.88;;
50355;SDS011;36264;51.296;-0.602;2022-07-23T07:18:17;8.23;;;3.40;;
50355;SDS011;36264;51.296;-0.602;2022-07-23T07:20:43;6.38;;;3.30;;
50355;SDS011;36264;51.296;-0.602;2022-07-23T07:23:08;6.00;;;2.92;;
50355;SDS011;36264;51.296;-0.602;2022-07-23T07:25:34;8.15;;;2.90;;
50355;SDS011;36264;51.296;-0.602;2022-07-23T07:27:59;7.22;;;3.22;;
50355;SDS011;36264;51.296;-0.602;2022-07-23T07:30:25;4.63;;;2.63;;
50355;SDS011;36264;51.296;-0.602;2022-07-23T07:32:50;5.90;;;2.80;;
50355;SDS011;36264;51.296;-0.602;2022-07-23T07:35:16;4.95;;;2.55;;
50355;SDS011;36264;51.296;-0.602;2022-07-23T07:37:41;3.33;;;2.25;;
50355;SDS011;36264;51.296;-0.602;2022-07-23T07:40:07;6.25;;;2.40;;
50355;SDS011;36264;51.296;-0.602;2022-07-23T07:42:33;4.85;;;2.30;;
50355;SDS011;36264;51.296;-0.602;2022-07-23T07:44:58;4.25;;;2.20;;
50355;SDS011;36264;51.296;-0.602;2022-07-23T07:47:24;6.07;;;2.78;;
50355;SDS011;36264;51.296;-0.602;2022-07-23T07:49:49;6.32;;;2.28;;
50355;SDS011;36264;51.296;-0.602;2022-07-23T07:52:14;5.50;;;2.53;;
50355;SDS011;36264;51.296;-0.602;2022-07-23T07:54:40;4.90;;;2.20;;
50355;SDS011;36264;51.296;-0.602;2022-07-23T07:57:05;4.43;;;2.40;;
50355;SDS011;36264;51.296;-0.602;2022-07-23T07:59:31;5.10;;;2.30;;
50355;SDS011;36264;51.296;-0.602;2022-07-23T08:01:56;4.80;;;2.20;;
50355;SDS011;36264;51.296;-0.602;2022-07-23T08:04:21;6.65;;;2.67;;
50355;SDS011;36264;51.296;-0.602;2022-07-23T08:06:47;3.55;;;2.17;;
50355;SDS011;36264;51.296;-0.602;2022-07-23T08:09:12;5.47;;;2.63;;
50355;SDS011;36264;51.296;-0.602;2022-07-23T08:11:37;4.90;;;2.40;;
50355;SDS011;36264;51.296;-0.602;2022-07-23T08:14:03;6.05;;;2.65;;
50355;SDS011;36264;51.296;-0.602;2022-07-23T08:16:28;5.72;;;2.90;;
50355;SDS011;36264;51.296;-0.602;2022-07-23T08:18:53;6.68;;;2.70;;
50355;SDS011;36264;51.296;-0.602;2022-07-23T08:21:19;4.97;;;2.88;;
50355;SDS011;36264;51.296;-0.602;2022-07-23T08:23:45;5.35;;;2.60;;
50355;SDS011;36264;51.296;-0.602;2022-07-23T08:26:10;3.85;;;2.20;;
50355;SDS011;36264;51.296;-0.602;2022-07-23T08:28:36;5.45;;;2.47;;
50355;SDS011;36264;51.296;-0.602;2022-07-23T08:31:01;4.38;;;2.60;;
50355;SDS011;36264;51.296;-0.602;2022-07-23T08:33:27;5.53;;;2.55;;
50355;SDS011;36264;51.296;-0.602;2022-07-23T08:35:52;6.22;;;2.63;;
50355;SDS011;36264;51.296;-0.602;2022-07-23T08:38:18;6.75;;;2.50;;
50355;SDS011;36264;51.296;-0.602;2022-07-23T08:40:49;4.28;;;2.33;;
50355;SDS011;36264;51.296;-0.602;2022-07-23T08:43:18;4.00;;;2.47;;
50355;SDS011;36264;51.296;-0.602;2022-07-23T08:45:47;4.68;;;2.38;;
50355;SDS011;36264;51.296;-0.602;2022-07-23T08:48:18;5.32;;;2.30;;
50355;SDS011;36264;51.296;-0.602;2022-07-23T08:50:46;4.78;;;2.45;;
50355;SDS011;36264;51.296;-0.602;2022-07-23T08:53:13;5.25;;;2.10;;
50355;SDS011;36264;51.296;-0.602;2022-07-23T08:55:40;3.22;;;1.80;;
50355;SDS011;36264;51.296;-0.602;2022-07-23T08:58:09;5.10;;;2.00;;
50355;SDS011;36264;51.296;-0.602;2022-07-23T09:00:34;4.53;;;2.30;;
50355;SDS011;36264;51.296;-0.602;2022-07-23T09:03:00;3.38;;;2.03;;
50355;SDS011;36264;51.296;-0.602;2022-07-23T09:05:25;5.97;;;1.95;;
50355;SDS011;36264;51.296;-0.602;2022-07-23T09:10:51;3.95;;;1.90;;
50355;SDS011;36264;51.296;-0.602;2022-07-23T09:13:31;3.00;;;2.00;;
50355;SDS011;36264;51.296;-0.602;2022-07-23T09:16:04;3.28;;;1.50;;
50355;SDS011;36264;51.296;-0.602;2022-07-23T09:18:52;3.67;;;1.90;;
50355;SDS011;36264;51.296;-0.602;2022-07-23T09:21:21;3.60;;;1.83;;
50355;SDS011;36264;51.296;-0.602;2022-07-23T09:26:28;3.33;;;2.00;;
50355;SDS011;36264;51.296;-0.602;2022-07-23T09:31:30;4.40;;;1.90;;
50355;SDS011;36264;51.296;-0.602;2022-07-23T09:34:10;5.07;;;2.00;;
50355;SDS011;36264;51.296;-0.602;2022-07-23T09:36:35;2.85;;;1.80;;
50355;SDS011;36264;51.296;-0.602;2022-07-23T09:39:01;4.00;;;1.90;;
50355;SDS011;36264;51.296;-0.602;2022-07-23T09:41:33;3.97;;;2.03;;
50355;SDS011;36264;51.296;-0.602;2022-07-23T09:44:06;3.55;;;1.80;;
50355;SDS011;36264;51.296;-0.602;2022-07-23T09:46:35;7.35;;;2.30;;
50355;SDS011;36264;51.296;-0.602;2022-07-23T09:49:09;3.42;;;1.80;;
50355;SDS011;36264;51.296;-0.602;2022-07-23T09:51:58;2.83;;;1.80;;
50355;SDS011;36264;51.296;-0.602;2022-07-23T09:54:33;2.90;;;1.80;;
50355;SDS011;36264;51.296;-0.602;2022-07-23T09:57:05;3.03;;;1.65;;
50355;SDS011;36264;51.296;-0.602;2022-07-23T09:59:35;2.22;;;1.50;;
50355;SDS011;36264;51.296;-0.602;2022-07-23T10:02:02;3.38;;;1.83;;
50355;SDS011;36264;51.296;-0.602;2022-07-23T10:04:31;3.85;;;1.70;;
50355;SDS011;36264;51.296;-0.602;2022-07-23T10:06:57;3.55;;;1.77;;
50355;SDS011;36264;51.296;-0.602;2022-07-23T10:09:28;2.70;;;1.63;;
50355;SDS011;36264;51.296;-0.602;2022-07-23T10:12:02;2.78;;;1.80;;
50355;SDS011;36264;51.296;-0.602;2022-07-23T10:14:52;2.97;;;1.63;;
50355;SDS011;36264;51.296;-0.602;2022-07-23T10:17:18;2.60;;;1.70;;
50355;SDS011;36264;51.296;-0.602;2022-07-23T10:19:43;3.17;;;1.80;;
50355;SDS011;36264;51.296;-0.602;2022-07-23T10:22:12;2.60;;;1.65;;
50355;SDS011;36264;51.296;-0.602;2022-07-23T10:24:42;3.13;;;1.92;;
50355;SDS011;36264;51.296;-0.602;2022-07-23T10:32:26;3.78;;;1.80;;
50355;SDS011;36264;51.296;-0.602;2022-07-23T10:35:10;2.65;;;1.70;;
50355;SDS011;36264;51.296;-0.602;2022-07-23T10:37:51;3.08;;;1.67;;
50355;SDS011;36264;51.296;-0.602;2022-07-23T10:40:22;3.40;;;1.63;;
50355;SDS011;36264;51.296;-0.602;2022-07-23T10:42:51;3.53;;;1.88;;
50355;SDS011;36264;51.296;-0.602;2022-07-23T10:45:24;3.15;;;1.80;;
50355;SDS011;36264;51.296;-0.602;2022-07-23T10:48:11;5.55;;;2.00;;
50355;SDS011;36264;51.296;-0.602;2022-07-23T10:50:42;3.50;;;2.15;;
50355;SDS011;36264;51.296;-0.602;2022-07-23T10:53:10;2.90;;;1.80;;
50355;SDS011;36264;51.296;-0.602;2022-07-23T10:58:09;2.85;;;1.75;;
50355;SDS011;36264;51.296;-0.602;2022-07-23T11:00:36;2.72;;;1.70;;
50355;SDS011;36264;51.296;-0.602;2022-07-23T11:06:10;3.15;;;1.80;;
50355;SDS011;36264;51.296;-0.602;2022-07-23T11:08:39;2.70;;;1.60;;
50355;SDS011;36264;51.296;-0.602;2022-07-23T11:13:33;2.75;;;1.70;;
50355;SDS011;36264;51.296;-0.602;2022-07-23T11:32:06;1.65;;;1.52;;
50355;SDS011;36264;51.296;-0.602;2022-07-23T11:34:34;2.20;;;1.50;;
50355;SDS011;36264;51.296;-0.602;2022-07-23T11:37:04;2.40;;;1.40;;
50355;SDS011;36264;51.296;-0.602;2022-07-23T11:39:31;2.50;;;1.60;;
50355;SDS011;36264;51.296;-0.602;2022-07-23T11:41:58;1.92;;;1.45;;
50355;SDS011;36264;51.296;-0.602;2022-07-23T11:44:42;2.78;;;1.63;;
50355;SDS011;36264;51.296;-0.602;2022-07-23T11:47:12;3.53;;;1.70;;
50355;SDS011;36264;51.296;-0.602;2022-07-23T11:49:38;3.00;;;1.70;;
50355;SDS011;36264;51.296;-0.602;2022-07-23T11:54:32;2.72;;;1.70;;
50355;SDS011;36264;51.296;-0.602;2022-07-23T11:57:00;3.50;;;1.42;;
50355;SDS011;36264;51.296;-0.602;2022-07-23T11:59:29;2.50;;;1.55;;
50355;SDS011;36264;51.296;-0.602;2022-07-23T12:02:00;2.97;;;1.80;;
50355;SDS011;36264;51.296;-0.602;2022-07-23T12:09:59;3.53;;;1.45;;
50355;SDS011;36264;51.296;-0.602;2022-07-23T12:12:43;2.33;;;1.55;;
50355;SDS011;36264;51.296;-0.602;2022-07-23T12:15:24;3.22;;;1.60;;
50355;SDS011;36264;51.296;-0.602;2022-07-23T12:17:56;3.65;;;1.63;;
50355;SDS011;36264;51.296;-0.602;2022-07-23T12:20:22;2.58;;;1.70;;
50355;SDS011;36264;51.296;-0.602;2022-07-23T12:22:51;4.13;;;1.70;;
50355;SDS011;36264;51.296;-0.602;2022-07-23T12:25:21;3.72;;;1.88;;
50355;SDS011;36264;51.296;-0.602;2022-07-23T12:30:31;3.58;;;1.83;;
50355;SDS011;36264;51.296;-0.602;2022-07-23T12:33:00;3.50;;;1.80;;
50355;SDS011;36264;51.296;-0.602;2022-07-23T12:35:45;3.90;;;1.55;;
50355;SDS011;36264;51.296;-0.602;2022-07-23T12:38:13;2.75;;;1.73;;
50355;SDS011;36264;51.296;-0.602;2022-07-23T12:40:47;2.67;;;1.73;;
50355;SDS011;36264;51.296;-0.602;2022-07-23T12:45:52;3.45;;;1.80;;
50355;SDS011;36264;51.296;-0.602;2022-07-23T12:48:24;5.07;;;2.03;;
50355;SDS011;36264;51.296;-0.602;2022-07-23T12:51:14;2.72;;;1.88;;
50355;SDS011;36264;51.296;-0.602;2022-07-23T12:53:42;3.33;;;1.90;;
50355;SDS011;36264;51.296;-0.602;2022-07-23T12:56:16;3.72;;;1.70;;
50355;SDS011;36264;51.296;-0.602;2022-07-23T12:58:45;2.50;;;1.63;;
50355;SDS011;36264;51.296;-0.602;2022-07-23T13:01:30;2.53;;;1.70;;
50355;SDS011;36264;51.296;-0.602;2022-07-23T13:04:18;2.40;;;1.70;;
50355;SDS011;36264;51.296;-0.602;2022-07-23T13:09:20;3.28;;;1.80;;
50355;SDS011;36264;51.296;-0.602;2022-07-23T13:11:50;2.58;;;1.70;;
50355;SDS011;36264;51.296;-0.602;2022-07-23T13:14:17;2.15;;;1.52;;
50355;SDS011;36264;51.296;-0.602;2022-07-23T13:16:44;2.90;;;1.88;;
50355;SDS011;36264;51.296;-0.602;2022-07-23T13:19:10;3.83;;;1.80;;
50355;SDS011;36264;51.296;-0.602;2022-07-23T13:21:36;2.80;;;1.80;;
50355;SDS011;36264;51.296;-0.602;2022-07-23T13:24:02;2.65;;;1.80;;
50355;SDS011;36264;51.296;-0.602;2022-07-23T13:26:28;3.35;;;2.00;;
50355;SDS011;36264;51.296;-0.602;2022-07-23T13:28:53;3.15;;;1.95;;
50355;SDS011;36264;51.296;-0.602;2022-07-23T13:31:19;2.75;;;1.88;;
50355;SDS011;36264;51.296;-0.602;2022-07-23T13:33:45;2.80;;;1.75;;
50355;SDS011;36264;51.296;-0.602;2022-07-23T13:36:11;2.97;;;1.80;;
50355;SDS011;36264;51.296;-0.602;2022-07-23T13:38:37;2.70;;;1.70;;
50355;SDS011;36264;51.296;-0.602;2022-07-23T13:41:03;2.72;;;1.77;;
50355;SDS011;36264;51.296;-0.602;2022-07-23T13:43:29;2.92;;;1.85;;
50355;SDS011;36264;51.296;-0.602;2022-07-23T13:45:55;2.63;;;1.63;;
50355;SDS011;36264;51.296;-0.602;2022-07-23T13:48:20;3.10;;;1.85;;
50355;SDS011;36264;51.296;-0.602;2022-07-23T13:50:47;3.33;;;1.80;;
50355;SDS011;36264;51.296;-0.602;2022-07-23T13:53:15;2.70;;;1.73;;
50355;SDS011;36264;51.296;-0.602;2022-07-23T13:55:45;2.72;;;1.60;;
50355;SDS011;36264;51.296;-0.602;2022-07-23T13:58:13;3.42;;;2.03;;
50355;SDS011;36264;51.296;-0.602;2022-07-23T14:00:40;4.75;;;2.25;;
50355;SDS011;36264;51.296;-0.602;2022-07-23T14:03:09;4.00;;;2.30;;
50355;SDS011;36264;51.296;-0.602;2022-07-23T14:05:35;6.03;;;2.08;;
50355;SDS011;36264;51.296;-0.602;2022-07-23T14:08:02;3.47;;;2.08;;
50355;SDS011;36264;51.296;-0.602;2022-07-23T14:10:27;3.45;;;2.03;;
50355;SDS011;36264;51.296;-0.602;2022-07-23T14:12:53;3.03;;;1.95;;
50355;SDS011;36264;51.296;-0.602;2022-07-23T14:15:21;5.72;;;2.30;;
50355;SDS011;36264;51.296;-0.602;2022-07-23T14:17:47;4.63;;;2.20;;
50355;SDS011;36264;51.296;-0.602;2022-07-23T14:20:13;4.40;;;2.20;;
50355;SDS011;36264;51.296;-0.602;2022-07-23T14:22:39;4.22;;;2.10;;
50355;SDS011;36264;51.296;-0.602;2022-07-23T14:25:05;2.55;;;1.60;;
50355;SDS011;36264;51.296;-0.602;2022-07-23T14:27:31;3.63;;;1.90;;
50355;SDS011;36264;51.296;-0.602;2022-07-23T14:29:57;3.20;;;1.85;;
50355;SDS011;36264;51.296;-0.602;2022-07-23T14:32:23;5.47;;;1.90;;
50355;SDS011;36264;51.296;-0.602;2022-07-23T14:34:48;2.58;;;1.70;;
50355;SDS011;36264;51.296;-0.602;2022-07-23T14:37:15;3.17;;;1.80;;
50355;SDS011;36264;51.296;-0.602;2022-07-23T14:39:41;4.47;;;2.17;;
50355;SDS011;36264;51.296;-0.602;2022-07-23T14:42:07;2.53;;;1.60;;
50355;SDS011;36264;51.296;-0.602;2022-07-23T14:44:33;2.35;;;1.65;;
50355;SDS011;36264;51.296;-0.602;2022-07-23T14:46:59;3.05;;;1.70;;
50355;SDS011;36264;51.296;-0.602;2022-07-23T14:49:25;2.70;;;1.48;;
50355;SDS011;36264;51.296;-0.602;2022-07-23T14:51:51;3.00;;;1.60;;
50355;SDS011;36264;51.296;-0.602;2022-07-23T14:54:17;2.90;;;1.80;;
50355;SDS011;36264;51.296;-0.602;2022-07-23T14:56:43;5.15;;;1.63;;
50355;SDS011;36264;51.296;-0.602;2022-07-23T14:59:08;2.42;;;1.65;;
50355;SDS011;36264;51.296;-0.602;2022-07-23T15:01:34;2.28;;;1.52;;
50355;SDS011;36264;51.296;-0.602;2022-07-23T15:04:01;2.50;;;1.65;;
50355;SDS011;36264;51.296;-0.602;2022-07-23T15:06:27;2.47;;;1.67;;
50355;SDS011;36264;51.296;-0.602;2022-07-23T15:08:53;2.17;;;1.60;;
50355;SDS011;36264;51.296;-0.602;2022-07-23T15:11:18;2.92;;;1.67;;
50355;SDS011;36264;51.296;-0.602;2022-07-23T15:13:45;2.30;;;1.60;;
50355;SDS011;36264;51.296;-0.602;2022-07-23T15:16:11;2.45;;;1.70;;
50355;SDS011;36264;51.296;-0.602;2022-07-23T15:18:37;2.78;;;1.70;;
50355;SDS011;36264;51.296;-0.602;2022-07-23T15:21:02;3.10;;;1.75;;
50355;SDS011;36264;51.296;-0.602;2022-07-23T15:23:28;2.67;;;1.60;;
50355;SDS011;36264;51.296;-0.602;2022-07-23T15:25:54;2.85;;;1.95;;